KJWG

Watonga Regional Airport

Watonga, Oklahoma, USA
METAR KJWG 230255Z AUTO 14006KT 10SM CLR 25/19 A2999 RMK AO2 LTG DSNT N T02480192
Observed Flight Rules
May-23 @ 02:55 UTC (6 minutes ago) Visual Flight Rules
Wind Visibility Clouds
140° at 6 knots 10 miles
  • Clear skies
Temperatures Readings
Current 25°C / 77°F
Dewpoint 19°C / 66°F
Humidity 69%
Altimeter 29.99" Hg
Pressure 1016 hPa
Elevation 472
METAR KJWG 230255Z AUTO 14006KT 10SM CLR 25/19 A2999 RMK AO2 LTG DSNT N T02480192
Observed Flight Rules
May-23 @ 02:55 UTC
(6 minutes ago)
VFR
Wind Visibility
140° at 6 knots 10 miles
Clouds
  • Clear skies
Temperature Dewpoint
25°C / 77°F 19°C / 66°F
Humidity Altimeter Pressure
69% 29.99" Hg 1016 hPa